Selah, Washington
Current Conditions -  °F | °C
As of 9:56 PM on Sunday 23 Nov 2014 (Local Time) from K1YT Reporting Station
Broken Clouds Broken Clouds  
Wind Chill: 38°   Ceiling: 20000
Heat Index: 41°   Visibility: 10mi
Dew Point: 30°   Wind: 5mph
Humidity: 64%   Direction: 220°SW
Pressure: 30.23"   Gusts: NA
Location:  46.65°N, 120.53°W
Report Text: K1YT 240556Z AUTO 22004KT 10SM BKN200 05/M01 A3023 RMK AO2 SLPNO T00511013 10073 20028 52012
Loading
Personal Weather Stations






























Interactive Weather Map New forecast layout! Learn more

10-Day Weather Forecast

Advertisements
Track Severe Weather on mobile